Walker, MN

4:24 PM CDT on May 04, 2015 (GMT -0500)
LEECH LAKE TV | | Change Station
CLOSE
Current Station
Personal Weather Station
Location: Walker, MN
Elevation: 1484 ft
Nearby Weather Stations

Elev 1484 ft 47.09 °N, 94.58 °W | Updated 4 minutes ago

Partly Cloudy
Partly Cloudy
63.8 °F
Feels Like 63.8 °F
N
1.0
Wind Variable Wind from East
Gusts 9.0 mph

Today
High -- | Low -- °F
--% Chance of Precip.
Yesterday
High -- | Low -- °F
Precip. -- in
5:58 AM 8:32 PM
Waxing Gibbous, 99% visible
Pressure 30.21 in
Visibility 10.0 miles
Clouds Clear
Dew Point 27 °F
Humidity 25%
Rainfall 0.00 in
Snow Depth Not available.
UV 6 out of 12
Pollen 10.40 out of 12
Air Quality Not available.
Flu Activity Sporadic
METAR KXVG 042116Z AUTO 28005KT 10SM CLR 18/M07 A3021 RMK AO2

More Conditions Fewer Conditions

Pressure 30.21 in
Visibility 10.0 miles
Clouds Clear
Dew Point 27 °F
Humidity 25%
Rainfall 0.00 in
Snow Depth Not available.
UV 6 out of 12
Pollen 10.40 out of 12
Air Quality Not available.
Flu Activity Sporadic
METAR KXVG 042116Z AUTO 28005KT 10SM CLR 18/M07 A3021 RMK AO2

More Conditions Fewer Conditions

Nepal has a long way to go to dig out and rebuild from a devastating earthquake. We have teamed up with several charities and organizations to make contributing to the relief effort as easy as possible.
How you can help: Portlight Strategies | Red Cross

10-Day Weather Forecast

Almanac

Astronomy

May. 04, 2015 Rise Set
Actual Time
Civil Twilight
Nautical Twilight
Astronomical Twilight
Moon
Length of Visible Light
Length of Day
Tomorrow will be .
, % of the Moon is Illuminated

Today's Extremes

State Highs State Lows

Community

WunderPhotos

Upload Photos

1,818,703 photos uploaded!

WunderBlogs® & News

Nearby

Air Quality

  Air Quality AQ Index Pollutant
Not available.

Snow Depth

Station Depth Elevation

Earthquake Activity

City Distance Mag. Time & Date
Minimum magnitude displayed is 2.5.

Coastal Water Temperatures

Place Temperature

Stations

Nearby Weather Stations

Station Location Temp. Windchill Dew Point Humidity Wind Precip. Elev Updated Type